createdAt,value
2018-06-03T00:00:31.456Z,19.00
2018-06-03T00:03:02.050Z,19.00
2018-06-03T00:05:36.595Z,18.90
2018-06-03T00:10:42.753Z,19.00
2018-06-03T00:13:14.830Z,18.90
2018-06-03T00:15:48.044Z,19.30
2018-06-03T00:18:20.120Z,19.00
2018-06-03T00:21:03.238Z,19.10
2018-06-03T00:23:34.177Z,18.90
2018-06-03T00:26:07.227Z,19.10
2018-06-03T00:28:41.143Z,19.00
2018-06-03T00:31:13.190Z,19.00
2018-06-03T00:33:44.704Z,18.90
2018-06-03T00:36:53.010Z,18.80
2018-06-03T00:39:31.944Z,18.80
2018-06-03T00:42:04.936Z,19.10
2018-06-03T00:44:39.039Z,18.90
2018-06-03T00:47:11.239Z,19.10
2018-06-03T00:49:47.543Z,18.90
2018-06-03T00:52:26.206Z,18.80
2018-06-03T00:55:02.676Z,18.80
2018-06-03T00:57:35.391Z,18.90
2018-06-03T01:02:40.630Z,18.70
2018-06-03T01:05:14.476Z,18.40
2018-06-03T01:07:48.291Z,19.00
2018-06-03T01:10:22.536Z,18.60
2018-06-03T01:12:56.514Z,18.50
2018-06-03T01:15:32.502Z,18.90
2018-06-03T01:18:07.555Z,18.60
2018-06-03T01:20:47.457Z,18.90
2018-06-03T01:23:28.330Z,18.90
2018-06-03T01:26:04.098Z,18.80
2018-06-03T01:31:07.752Z,19.00
2018-06-03T01:33:48.914Z,18.50
2018-06-03T01:36:24.916Z,18.90
2018-06-03T01:38:57.672Z,18.70
2018-06-03T01:41:37.196Z,18.80
2018-06-03T01:44:08.513Z,18.40
2018-06-03T01:46:47.881Z,18.50
2018-06-03T01:49:23.755Z,18.90
2018-06-03T01:52:00.533Z,18.80
2018-06-03T01:57:23.250Z,19.10
2018-06-03T01:59:55.143Z,19.00
2018-06-03T02:02:31.531Z,19.00
2018-06-03T02:05:04.100Z,19.00
2018-06-03T02:07:41.479Z,19.00
2018-06-03T02:10:15.206Z,18.90
2018-06-03T02:12:50.958Z,18.90
2018-06-03T02:15:23.127Z,19.00
2018-06-03T02:20:43.439Z,18.90
2018-06-03T02:23:21.524Z,18.80
2018-06-03T02:25:56.355Z,19.00
2018-06-03T02:28:28.752Z,18.50
2018-06-03T02:31:04.163Z,18.80
2018-06-03T02:33:36.854Z,18.60
2018-06-03T02:36:11.858Z,18.70
2018-06-03T02:38:46.965Z,19.00
2018-06-03T02:43:54.070Z,18.80
2018-06-03T02:49:11.099Z,18.30
2018-06-03T02:51:48.422Z,18.40
2018-06-03T02:54:23.010Z,18.70
2018-06-03T02:56:58.259Z,18.40
2018-06-03T02:59:32.095Z,18.30
2018-06-03T03:02:07.339Z,18.10
2018-06-03T03:04:48.267Z,18.40
2018-06-03T03:07:33.346Z,18.40
2018-06-03T03:10:11.621Z,18.50
2018-06-03T03:12:48.060Z,18.10
2018-06-03T03:15:22.030Z,18.50
2018-06-03T03:17:57.415Z,18.20
2018-06-03T03:20:29.365Z,18.40
2018-06-03T03:31:00.541Z,18.10
2018-06-03T03:33:35.880Z,18.20
2018-06-03T03:36:10.887Z,18.40
2018-06-03T03:38:47.735Z,18.30
2018-06-03T03:41:20.417Z,18.30
2018-06-03T03:44:03.675Z,18.30
2018-06-03T03:46:41.036Z,18.60
2018-06-03T03:49:15.253Z,18.30
2018-06-03T03:51:47.446Z,18.10
2018-06-03T03:54:34.262Z,18.30
2018-06-03T03:57:13.318Z,18.40
2018-06-03T03:59:47.030Z,18.50
2018-06-03T04:02:24.932Z,18.30
2018-06-03T04:05:04.165Z,18.30
2018-06-03T04:07:39.452Z,18.60
2018-06-03T04:10:15.945Z,18.30
2018-06-03T04:12:48.932Z,18.60
2018-06-03T04:15:37.047Z,18.20
2018-06-03T04:18:16.754Z,18.40
2018-06-03T04:20:50.190Z,18.20
2018-06-03T04:23:30.200Z,18.60
2018-06-03T04:26:03.910Z,18.30
2018-06-03T04:31:19.511Z,18.50
2018-06-03T04:33:58.439Z,18.60
2018-06-03T04:41:56.076Z,18.40
2018-06-03T04:44:32.407Z,18.50
2018-06-03T04:47:13.065Z,18.50
2018-06-03T04:49:51.592Z,18.40
2018-06-03T04:52:28.665Z,18.90
2018-06-03T05:00:19.593Z,19.00
2018-06-03T05:03:00.257Z,18.70
2018-06-03T05:05:53.437Z,19.00
2018-06-03T05:08:32.030Z,18.90
2018-06-03T05:16:33.255Z,19.30
2018-06-03T05:19:10.019Z,19.20
2018-06-03T05:21:46.382Z,19.40
2018-06-03T05:24:22.749Z,19.60
2018-06-03T05:26:55.643Z,19.30
2018-06-03T05:29:38.400Z,19.20
2018-06-03T05:34:45.562Z,19.00
2018-06-03T05:37:25.480Z,19.30
2018-06-03T05:39:59.669Z,19.30
2018-06-03T05:45:09.051Z,19.40
2018-06-03T05:47:47.612Z,19.10
2018-06-03T05:50:25.678Z,19.10
2018-06-03T05:53:03.481Z,19.40
2018-06-03T05:55:39.442Z,20.00
2018-06-03T06:00:58.006Z,20.30
2018-06-03T06:03:30.709Z,20.10
2018-06-03T06:06:04.512Z,20.60
2018-06-03T06:11:14.127Z,20.20
2018-06-03T06:13:45.988Z,20.30
2018-06-03T06:18:52.932Z,20.00
2018-06-03T06:21:25.258Z,20.20
2018-06-03T06:23:56.989Z,20.50
2018-06-03T06:26:28.673Z,20.60
2018-06-03T06:29:02.732Z,20.50
2018-06-03T06:31:38.745Z,20.60
2018-06-03T06:34:10.677Z,20.50
2018-06-03T06:36:44.641Z,20.80
2018-06-03T06:39:21.008Z,20.60
2018-06-03T06:41:56.941Z,20.90
2018-06-03T06:44:29.154Z,20.60
2018-06-03T06:49:42.400Z,20.90
2018-06-03T06:52:21.434Z,21.30
2018-06-03T06:54:57.415Z,21.00
2018-06-03T07:00:10.772Z,20.90
2018-06-03T07:02:47.341Z,20.30
2018-06-03T07:05:19.818Z,20.50
2018-06-03T07:07:58.579Z,20.80
2018-06-03T07:13:06.804Z,20.70
2018-06-03T07:15:40.338Z,20.30
2018-06-03T07:18:11.338Z,20.70
2018-06-03T07:20:44.572Z,20.50
2018-06-03T07:23:16.473Z,20.30
2018-06-03T07:25:49.816Z,20.40
2018-06-03T07:30:58.042Z,20.90
2018-06-03T07:33:31.253Z,21.10
2018-06-03T07:36:03.883Z,21.10
2018-06-03T07:38:38.646Z,21.60
2018-06-03T07:41:16.552Z,21.50
2018-06-03T07:43:56.500Z,21.70
2018-06-03T07:46:30.910Z,21.60
2018-06-03T07:49:04.131Z,21.20
2018-06-03T07:51:39.770Z,21.30
2018-06-03T07:54:22.087Z,21.50
2018-06-03T07:56:56.365Z,22.10
2018-06-03T08:02:10.610Z,23.30
2018-06-03T08:04:40.639Z,24.00
2018-06-03T08:07:08.530Z,24.20
2018-06-03T08:09:36.404Z,23.70
2018-06-03T08:12:04.692Z,23.80
2018-06-03T08:14:32.500Z,23.60
2018-06-03T08:17:00.456Z,24.10
2018-06-03T08:19:28.255Z,24.20
2018-06-03T08:21:56.369Z,24.80
2018-06-03T08:24:24.117Z,25.40
2018-06-03T08:29:19.680Z,25.40
2018-06-03T08:31:47.520Z,25.70
2018-06-03T08:34:15.444Z,25.70
2018-06-03T08:36:43.309Z,25.30
2018-06-03T08:39:11.310Z,25.50
2018-06-03T08:41:39.219Z,26.50
2018-06-03T08:44:07.444Z,27.80
2018-06-03T08:46:35.462Z,28.60
2018-06-03T08:49:03.321Z,28.70
2018-06-03T08:51:31.266Z,30.00
2018-06-03T08:53:59.297Z,29.70
2018-06-03T08:56:27.107Z,29.80
2018-06-03T08:58:55.060Z,30.20
2018-06-03T09:01:22.975Z,30.60
2018-06-03T09:03:50.861Z,31.90
2018-06-03T09:06:18.691Z,31.80
2018-06-03T09:08:46.571Z,32.70
2018-06-03T09:11:14.353Z,32.30
2018-06-03T09:13:42.214Z,30.70
2018-06-03T09:16:10.029Z,31.80
2018-06-03T09:18:37.863Z,31.80
2018-06-03T09:21:05.764Z,32.60
2018-06-03T09:23:33.489Z,33.30
2018-06-03T09:26:01.285Z,33.40
2018-06-03T09:28:29.114Z,32.50
2018-06-03T09:31:02.342Z,32.10
2018-06-03T09:33:30.129Z,30.70
2018-06-03T09:35:57.920Z,29.50
2018-06-03T09:38:25.686Z,28.30
2018-06-03T09:40:53.498Z,27.90
2018-06-03T09:43:21.270Z,28.70
2018-06-03T09:45:49.254Z,27.90
2018-06-03T09:48:16.980Z,27.20
2018-06-03T09:50:44.748Z,27.30
2018-06-03T09:53:12.541Z,29.10
2018-06-03T09:55:40.237Z,29.50
2018-06-03T09:58:07.996Z,29.50
2018-06-03T10:00:35.755Z,29.30
2018-06-03T10:03:03.512Z,30.30
2018-06-03T10:07:58.878Z,32.60
2018-06-03T10:10:26.640Z,32.20
2018-06-03T10:12:54.393Z,30.80
2018-06-03T10:15:22.132Z,29.80
2018-06-03T10:17:49.924Z,28.90
2018-06-03T10:20:17.659Z,28.30
2018-06-03T10:22:45.430Z,27.70
2018-06-03T10:25:13.234Z,26.90
2018-06-03T10:27:41.001Z,26.20
2018-06-03T10:30:08.756Z,26.60
2018-06-03T10:32:36.536Z,27.80
2018-06-03T10:35:04.353Z,29.30
2018-06-03T10:37:32.073Z,30.00
2018-06-03T10:39:59.911Z,31.20
2018-06-03T10:44:55.308Z,31.60
2018-06-03T10:47:23.403Z,30.30
2018-06-03T10:49:51.157Z,30.80
2018-06-03T10:52:18.869Z,31.00
2018-06-03T10:54:46.592Z,30.00
2018-06-03T10:57:14.297Z,29.60
2018-06-03T10:59:42.033Z,29.00
2018-06-03T11:02:09.764Z,28.90
2018-06-03T11:07:05.060Z,29.80
2018-06-03T11:09:32.973Z,30.20
2018-06-03T11:12:00.767Z,31.10
2018-06-03T11:14:28.494Z,31.50
2018-06-03T11:16:56.185Z,31.40
2018-06-03T11:19:23.901Z,30.90
2018-06-03T11:21:51.621Z,30.00
2018-06-03T11:24:19.308Z,29.60
2018-06-03T11:26:47.009Z,29.40
2018-06-03T11:29:14.760Z,28.30
2018-06-03T11:31:42.469Z,27.70
2018-06-03T11:34:10.169Z,27.80
2018-06-03T11:39:07.684Z,26.80
2018-06-03T11:41:35.752Z,27.10
2018-06-03T11:44:03.754Z,27.30
2018-06-03T11:46:31.505Z,27.40
2018-06-03T11:48:59.276Z,27.80
2018-06-03T11:51:26.990Z,27.70
2018-06-03T11:53:54.738Z,28.20
2018-06-03T11:56:27.313Z,29.20
2018-06-03T11:59:05.178Z,31.60
2018-06-03T12:01:32.892Z,31.90
2018-06-03T12:06:28.192Z,30.90
2018-06-03T12:08:55.967Z,29.50
2018-06-03T12:11:23.720Z,29.40
2018-06-03T12:13:51.453Z,29.80
2018-06-03T12:16:19.209Z,30.40
2018-06-03T12:18:46.957Z,30.40
2018-06-03T12:21:14.658Z,29.20
2018-06-03T12:23:42.696Z,28.80
2018-06-03T12:26:10.445Z,28.60
2018-06-03T12:28:38.272Z,28.20
2018-06-03T12:31:05.944Z,27.70
2018-06-03T12:33:33.668Z,28.20
2018-06-03T12:36:01.404Z,28.50
2018-06-03T12:38:29.148Z,29.20
2018-06-03T12:40:56.888Z,28.60
2018-06-03T12:43:24.632Z,28.30
2018-06-03T12:45:52.377Z,28.00
2018-06-03T12:48:20.138Z,27.70
2018-06-03T12:50:47.895Z,27.50
2018-06-03T12:53:15.602Z,27.40
2018-06-03T12:55:43.391Z,27.40
2018-06-03T12:58:11.124Z,27.30
2018-06-03T13:00:39.783Z,27.90
2018-06-03T13:03:07.590Z,27.60
2018-06-03T13:05:35.501Z,27.60
2018-06-03T13:08:03.341Z,27.80
2018-06-03T13:12:58.682Z,28.20
2018-06-03T13:15:26.429Z,28.10
2018-06-03T13:17:54.164Z,27.50
2018-06-03T13:20:21.905Z,27.60
2018-06-03T13:22:49.613Z,28.20
2018-06-03T13:25:17.320Z,29.00
2018-06-03T13:27:45.069Z,30.20
2018-06-03T13:32:40.407Z,31.10
2018-06-03T13:35:08.140Z,31.60
2018-06-03T13:37:35.945Z,31.70
2018-06-03T13:42:31.259Z,31.70
2018-06-03T13:44:59.004Z,30.70
2018-06-03T13:49:54.360Z,29.60
2018-06-03T13:52:22.191Z,30.30
2018-06-03T13:57:17.623Z,30.30
2018-06-03T14:02:13.041Z,31.00
2018-06-03T14:07:08.599Z,31.00
2018-06-03T14:09:36.379Z,31.00
2018-06-03T14:12:04.220Z,30.60
2018-06-03T14:14:32.076Z,31.00
2018-06-03T14:16:59.869Z,30.90
2018-06-03T14:19:27.757Z,31.20
2018-06-03T14:21:55.489Z,32.00
2018-06-03T14:24:23.304Z,32.40
2018-06-03T14:26:51.151Z,31.30
2018-06-03T14:29:18.928Z,29.80
2018-06-03T14:31:46.672Z,29.00
2018-06-03T14:34:14.496Z,29.10
2018-06-03T14:36:42.255Z,29.40
2018-06-03T14:41:37.715Z,30.30
2018-06-03T14:44:05.579Z,30.50
2018-06-03T14:46:33.388Z,30.60
2018-06-03T14:49:01.182Z,30.90
2018-06-03T14:51:29.325Z,30.80
2018-06-03T14:53:57.155Z,30.30
2018-06-03T14:56:24.922Z,29.80
2018-06-03T14:58:52.752Z,29.30
2018-06-03T15:01:20.548Z,30.10
2018-06-03T15:03:48.271Z,30.30
2018-06-03T15:06:16.170Z,30.20
2018-06-03T15:08:43.927Z,29.90
2018-06-03T15:11:11.692Z,29.50
2018-06-03T15:13:40.008Z,29.20
2018-06-03T15:16:07.808Z,29.90
2018-06-03T15:18:36.115Z,29.90
2018-06-03T15:21:03.971Z,29.80
2018-06-03T15:23:31.770Z,29.30
2018-06-03T15:25:59.621Z,29.10
2018-06-03T15:28:27.464Z,29.80
2018-06-03T15:33:22.922Z,29.40
2018-06-03T15:35:50.752Z,28.90
2018-06-03T15:40:46.188Z,28.90
2018-06-03T15:43:14.041Z,29.10
2018-06-03T15:45:41.833Z,28.70
2018-06-03T15:48:09.652Z,28.50
2018-06-03T15:50:37.814Z,28.40
2018-06-03T15:53:05.636Z,28.40
2018-06-03T16:02:56.425Z,28.80
2018-06-03T16:05:24.261Z,28.30
2018-06-03T16:10:19.709Z,28.10
2018-06-03T16:12:47.496Z,28.30
2018-06-03T16:15:15.261Z,28.20
2018-06-03T16:17:43.128Z,28.10
2018-06-03T16:20:10.924Z,28.40
2018-06-03T16:22:38.696Z,28.50
2018-06-03T16:25:06.451Z,28.40
2018-06-03T16:27:34.407Z,28.20
2018-06-03T16:30:02.281Z,27.90
2018-06-03T16:32:30.084Z,27.60
2018-06-03T16:34:57.898Z,27.60
2018-06-03T16:37:26.632Z,27.20
2018-06-03T16:39:54.461Z,27.40
2018-06-03T16:42:22.604Z,27.30
2018-06-03T16:44:50.436Z,26.80
2018-06-03T16:49:46.456Z,26.70
2018-06-03T16:52:14.203Z,26.10
2018-06-03T16:54:41.962Z,26.40
2018-06-03T16:57:09.728Z,26.40
2018-06-03T16:59:37.585Z,26.70
2018-06-03T17:02:05.367Z,26.50
2018-06-03T17:04:33.192Z,26.70
2018-06-03T17:07:00.971Z,26.60
2018-06-03T17:09:28.757Z,26.60
2018-06-03T17:11:56.526Z,27.00
2018-06-03T17:14:24.338Z,26.90
2018-06-03T17:16:52.090Z,26.50
2018-06-03T17:19:19.808Z,26.20
2018-06-03T17:21:48.277Z,26.80
2018-06-03T17:24:16.069Z,26.30
2018-06-03T17:26:43.904Z,26.00
2018-06-03T17:29:11.668Z,26.00
2018-06-03T17:31:39.426Z,26.30
2018-06-03T17:34:07.212Z,26.00
2018-06-03T17:36:35.006Z,25.70
2018-06-03T17:39:03.183Z,26.00
2018-06-03T17:41:31.008Z,26.10
2018-06-03T17:43:58.724Z,25.70
2018-06-03T17:48:54.137Z,25.30
2018-06-03T17:53:49.728Z,24.80
2018-06-03T17:56:17.830Z,24.90
2018-06-03T17:58:45.605Z,24.90
2018-06-03T18:01:13.333Z,24.50
2018-06-03T18:03:41.072Z,24.70
2018-06-03T18:06:08.868Z,24.30
2018-06-03T18:08:36.617Z,24.60
2018-06-03T18:11:04.463Z,24.60
2018-06-03T18:13:32.192Z,24.70
2018-06-03T18:15:59.955Z,24.20
2018-06-03T18:20:55.359Z,24.40
2018-06-03T18:23:23.150Z,23.90
2018-06-03T18:25:50.900Z,24.00
2018-06-03T18:28:18.657Z,23.70
2018-06-03T18:30:46.438Z,23.70
2018-06-03T18:33:14.153Z,23.70
2018-06-03T18:35:41.948Z,24.00
2018-06-03T18:38:09.776Z,23.80
2018-06-03T18:40:37.476Z,23.50
2018-06-03T18:43:05.306Z,23.60
2018-06-03T18:45:33.555Z,23.40
2018-06-03T18:50:28.990Z,23.40
2018-06-03T18:55:24.466Z,23.50
2018-06-03T18:57:52.311Z,23.40
2018-06-03T19:00:20.490Z,23.10
2018-06-03T19:02:48.268Z,23.30
2018-06-03T19:05:16.048Z,22.70
2018-06-03T19:07:43.856Z,23.20
2018-06-03T19:10:11.617Z,22.70
2018-06-03T19:12:39.435Z,22.50
2018-06-03T19:15:09.065Z,22.70
2018-06-03T19:20:04.705Z,22.60
2018-06-03T19:27:27.869Z,22.60
2018-06-03T19:29:55.837Z,22.40
2018-06-03T19:32:23.648Z,22.70
2018-06-03T19:37:19.803Z,22.40
2018-06-03T19:39:47.544Z,22.10
2018-06-03T19:47:10.665Z,22.30
2018-06-03T19:49:38.459Z,22.20
2018-06-03T19:52:06.210Z,22.10
2018-06-03T19:54:34.019Z,21.80
2018-06-03T19:57:01.838Z,21.60
2018-06-03T19:59:29.917Z,21.70
2018-06-03T20:01:57.675Z,21.70
2018-06-03T20:04:25.425Z,21.80
2018-06-03T20:06:53.213Z,21.60
2018-06-03T20:09:21.074Z,21.50
2018-06-03T20:11:49.058Z,21.60
2018-06-03T20:14:16.822Z,21.30
2018-06-03T20:16:44.752Z,21.40
2018-06-03T20:19:12.555Z,21.10
2018-06-03T20:21:40.481Z,21.50
2018-06-03T20:24:08.396Z,21.20
2018-06-03T20:29:04.201Z,21.20
2018-06-03T20:31:32.013Z,21.20
2018-06-03T20:34:00.102Z,20.90
2018-06-03T20:36:28.033Z,21.10
2018-06-03T20:38:55.772Z,21.20
2018-06-03T20:41:23.559Z,20.80
2018-06-03T20:43:51.362Z,20.90
2018-06-03T20:46:19.182Z,20.70
2018-06-03T20:48:46.995Z,20.90
2018-06-03T20:51:14.784Z,20.50
2018-06-03T20:53:42.652Z,20.80
2018-06-03T20:56:10.387Z,20.60
2018-06-03T21:03:33.503Z,20.70
2018-06-03T21:06:01.589Z,20.40
2018-06-03T21:08:29.415Z,20.70
2018-06-03T21:10:57.248Z,20.50
2018-06-03T21:13:25.029Z,20.20
2018-06-03T21:18:20.612Z,20.20
2018-06-03T21:20:48.456Z,20.20
2018-06-03T21:25:43.985Z,20.20
2018-06-03T21:28:11.797Z,20.20
2018-06-03T21:30:39.584Z,20.20
2018-06-03T21:33:07.398Z,20.20
2018-06-03T21:35:35.220Z,20.10
2018-06-03T21:38:03.029Z,20.10
2018-06-03T21:40:30.821Z,20.30
2018-06-03T21:42:58.676Z,19.90
2018-06-03T21:45:26.549Z,20.10
2018-06-03T21:47:54.452Z,19.90
2018-06-03T21:50:22.336Z,19.80
2018-06-03T21:52:50.164Z,20.20
2018-06-03T21:55:18.016Z,20.00
2018-06-03T21:57:45.984Z,20.00
2018-06-03T22:00:13.819Z,20.10
2018-06-03T22:02:41.710Z,19.90
2018-06-03T22:05:10.476Z,19.90
2018-06-03T22:07:38.324Z,19.90
2018-06-03T22:10:06.112Z,20.00
2018-06-03T22:12:34.368Z,19.90
2018-06-03T22:17:30.144Z,19.50
2018-06-03T22:19:57.956Z,19.50
2018-06-03T22:22:25.785Z,19.80
2018-06-03T22:24:53.701Z,19.50
2018-06-03T22:27:21.524Z,19.50
2018-06-03T22:29:49.604Z,19.40
2018-06-03T22:32:17.377Z,19.40
2018-06-03T22:34:45.295Z,19.30
2018-06-03T22:37:13.169Z,19.20
2018-06-03T22:39:41.040Z,19.40
2018-06-03T22:42:08.849Z,19.20
2018-06-03T22:44:36.671Z,19.30
2018-06-03T22:47:04.513Z,19.20
2018-06-03T22:49:33.255Z,19.10
2018-06-03T22:52:01.089Z,19.30
2018-06-03T22:54:28.964Z,19.20
2018-06-03T22:58:03.457Z,19.10
2018-06-03T23:00:32.466Z,19.40
2018-06-03T23:03:06.129Z,19.10
2018-06-03T23:05:34.074Z,19.00
2018-06-03T23:08:01.896Z,19.00
2018-06-03T23:12:57.418Z,18.90
2018-06-03T23:15:25.244Z,18.90
2018-06-03T23:17:53.090Z,18.60
2018-06-03T23:20:20.882Z,18.90
2018-06-03T23:22:48.720Z,18.70
2018-06-03T23:25:16.520Z,18.50
2018-06-03T23:27:44.346Z,18.70
2018-06-03T23:30:12.154Z,19.00
2018-06-03T23:32:39.948Z,18.80
2018-06-03T23:37:35.459Z,18.50
2018-06-03T23:40:03.420Z,18.50
2018-06-03T23:42:31.419Z,19.10
2018-06-03T23:47:26.865Z,18.70
2018-06-03T23:49:54.624Z,18.60
2018-06-03T23:52:22.397Z,18.30
2018-06-03T23:54:50.175Z,18.40
2018-06-03T23:57:18.002Z,18.50
